Aviation Digital Data Service (ADDS)

Output produced by METARs form (2308 UTC 21 February 2018)
found at http://www.aviationweather.gov/adds/metars/
 
KMEI 212258Z 14013KT 10SM FEW042 SCT090 SCT110 26/19 A3018 RMK AO2 SLP215 T02560189
KMEI 212158Z 00000KT 10SM FEW040 BKN050 BKN065 26/21 A3018 RMK AO2 SLP216 T02560206
KMEI 212118Z 11006KT 10SM SCT041 25/22 A3019 RMK AO2 LTG DSNT NE AND E T02500217
KMEI 212058Z 15007KT 10SM VCTS FEW031 SCT065 SCT080 24/22 A3019 RMK AO2 RAB24E56 SLP220 P0006 60006 T02440217 56021
KMEI 211958Z 14016KT 10SM SCT042 BKN050 28/18 A3019 RMK AO2 SLP220 T02780183
KMEI 211858Z 18010G17KT 10SM FEW038 SCT045 BKN080 28/19 A3021 RMK AO2 SLP227 T02830189
KMEI 211758Z 16011G16KT 10SM FEW035 SCT050 BKN070 28/19 A3025 RMK AO2 SLP241 60000 T02780189 10278 20217 58014
KMEI 211658Z 16009KT 10SM BKN070 26/20 A3028 RMK AO2 RAB12E25 SLP249 P0000 T02610200
KMEI 211629Z 16011KT 10SM FEW021 BKN037 BKN065 25/21 A3029 RMK AO2 RAB12E25 P0000 T02500206
KMEI 211558Z 18010G18KT 10SM BKN017 OVC025 25/21 A3029 RMK AO2 RAB36E45 SLP254 P0000 T02500206
KMEI 211458Z 17007KT 10SM BKN016 OVC023 23/20 A3030 RMK AO2 SLP255 60000 T02330200 53015
KMEI 211447Z 18006KT 10SM BKN016 OVC023 23/20 A3030 RMK AO2 T02330200
KMEI 211358Z 18004KT 10SM BKN014 OVC028 23/21 A3028 RMK AO2 RAB30E40 SLP250 P0000 T02280206
KMEI 211325Z 18006KT 10SM BKN014 OVC022 22/20 A3027 RMK AO2 T02220200
KMEI 211258Z 18005KT 10SM OVC015 22/20 A3027 RMK AO2 SLP245 T02170200
KMEI 210726Z AUTO 17012KT 10SM BKN013 22/20 A3023 RMK AO2 T02220200
KMEI 210658Z AUTO 17007KT 10SM BKN015 BKN019 OVC065 22/20 A3024 RMK AO2 SLP236 T02220200
KMEI 210558Z AUTO 19006KT 10SM BKN017 BKN024 22/19 A3024 RMK AO2 SLP236 T02170194 10244 20211 402830189 51006
KMEI 201458Z 15010KT 10SM SCT014 BKN020 OVC026 22/18 A3024 RMK AO2 SLP237 T02170183 51019
KMEI 201434Z 16010KT 10SM BKN015 OVC021 21/18 A3023 RMK AO2 T02110178
KMEI 201358Z 14008KT 10SM OVC013 21/18 A3022 RMK AO2 SLP230 T02060183
KMEI 201323Z 16007KT 10SM OVC013 20/18 A3021 RMK AO2 T02000178
KMEI 201258Z 17007KT 10SM FEW012 OVC020 19/18 A3020 RMK AO2 SLP225 T01940178
KMEI 201246Z 16007KT 10SM FEW011 OVC020 19/18 A3020 RMK AO2 T01940178
KMEI 201226Z 16010KT 10SM BKN011 OVC017 20/18 A3020 RMK AO2 T02000178
KMEI 201158Z 16009KT 10SM BKN019 19/17 A3018 RMK AO2 SLP218 T01940172 10211 20189 55001
KMEI 201058Z AUTO 15009KT 10SM FEW010 19/17 A3018 RMK AO2 SLP216 T01890172
KMEI 200958Z AUTO 16008KT 10SM CLR 19/17 A3018 RMK AO2 SLP215 T01890172
KMEI 200939Z AUTO 15006KT 10SM FEW011 SCT024 19/17 A3018 RMK AO2 T01890172
KMEI 200909Z AUTO 16006KT 10SM SCT011 BKN016 BKN023 19/18 A3018 RMK AO2 T01940178
KMEI 200858Z AUTO 16006KT 10SM BKN013 BKN020 BKN025 19/18 A3019 RMK AO2 SLP218 T01940178 58004
KMEI 200810Z AUTO 18008KT 10SM FEW016 BKN023 20/18 A3020 RMK AO2 T02000178
KMEI 200758Z AUTO 17010KT 10SM SCT022 20/18 A3019 RMK AO2 SLP219 T02000178
KMEI 200747Z AUTO 17008KT 10SM SCT022 21/18 A3019 RMK AO2 T02060178
KMEI 200706Z AUTO 17009KT 10SM BKN020 BKN060 21/18 A3021 RMK AO2 T02060178
KMEI 200658Z AUTO 16011KT 10SM SCT018 BKN060 21/18 A3021 RMK AO2 SLP225 T02060178
KMEI 200558Z AUTO 17008KT 10SM OVC070 21/18 A3020 RMK AO2 SLP222 T02110178 10239 20211 402780111 53007
KMEI 200458Z AUTO 15007KT 10SM SCT055 OVC070 21/18 A3019 RMK AO2 SLP219 T02110178
KMEI 200358Z 17010KT 10SM SCT048 OVC070 22/17 A3018 RMK AO2 SLP218 T02170172
KMEI 200258Z 16013KT 10SM SCT075 22/17 A3017 RMK AO2 SLP215 T02220167 53013
KMEI 200158Z 17012G19KT 10SM CLR 22/17 A3015 RMK AO2 SLP207 T02220167
KMEI 200058Z 17011KT 10SM CLR 23/16 A3014 RMK AO2 SLP204 T02330161
KMEI 192358Z 16008KT 10SM FEW048 24/16 A3014 RMK AO2 SLP202 T02390161 10278 20239 53007
KMEI 192258Z 17011KT 10SM SCT048 26/16 A3012 RMK AO2 SLP198 T02560161
KMEI 192158Z 17013G22KT 10SM FEW046 27/16 A3010 RMK AO2 SLP191 T02720161
KMEI 192058Z 17013KT 10SM SCT075 BKN085 27/17 A3011 RMK AO2 WSHFT 1949 SLP194 T02670167 56021
KMEI 192009Z 15012KT 10SM BKN048 BKN070 26/17 A3012 RMK AO2 WSHFT 1949 T02610172
KMEI 191958Z 17015KT 10SM SCT047 BKN060 BKN075 28/17 A3012 RMK AO2 SLP197 T02780172
KMEI 191858Z 20011G19KT 10SM FEW035 FEW042 SCT060 26/17 A3014 RMK AO2 SLP203 T02610172
KMEI 191758Z 16011KT 10SM SCT023 BKN030 OVC060 25/18 A3018 RMK AO2 SLP217 T02500178 10250 20172 58014
KMEI 191748Z 16012G17KT 10SM SCT023 BKN029 BKN036 24/18 A3018 RMK AO2 T02440183
KMEI 191734Z 15009KT 10SM SCT023 SCT027 25/18 A3019 RMK AO2 T02500183
KMEI 191658Z 16007G18KT 140V200 10SM BKN017 BKN025 23/18 A3020 RMK AO2 SLP226 T02330183
KMEI 191621Z 16009KT 10SM OVC015 22/18 A3021 RMK AO2 T02170183
KMEI 191558Z 17009KT 10SM OVC013 22/18 A3021 RMK AO2 SLP228 T02170183
KMEI 191531Z 16008KT 10SM OVC010 21/18 A3021 RMK AO2 T02110183
KMEI 191458Z 16008KT 10SM OVC008 21/18 A3022 RMK AO2 SLP230 T02060183 51012
KMEI 191354Z 13005KT 10SM BKN008 BKN014 OVC028 19/18 A3021 RMK AO2 CIG 007V012 SLP228 T01940178
KMEI 191353Z 14005KT 10SM BKN008 BKN015 OVC028 19/18 A3021 RMK AO2 CIG 007V012
KMEI 191258Z 16005KT 8SM SCT012 OVC019 18/17 A3020 RMK AO2 SLP225 T01830172
KMEI 191158Z 18003KT 8SM OVC016 17/17 A3018 RMK AO2 SLP219 70001 T01720167 10172 20111 51008
KMEI 191155Z 18004KT 7SM OVC016 17/17 A3018 RMK AO2
KMEI 191058Z AUTO 18005KT 9SM SCT006 OVC011 17/17 A3017 RMK AO2 SLP215 T01720167
KMEI 191051Z AUTO 17005KT 9SM BKN006 OVC010 17/17 A3017 RMK AO2 CIG 004V009 T01720167
KMEI 191012Z AUTO 17007KT 4SM BR OVC002 17/17 A3016 RMK AO2 T01670167
KMEI 190958Z AUTO 17009KT 2SM R01/5500VP6000FT BR OVC002 17/16 A3016 RMK AO2 SLP211 T01670161
KMEI 190924Z AUTO 18008KT 1 3/4SM R01/4000VP6000FT BR BKN002 BKN006 OVC065 16/16 A3016 RMK AO2 T01610156
KMEI 190912Z AUTO 18009KT 7SM BKN004 BKN060 16/15 A3016 RMK AO2 CIG 003V006 T01610150
KMEI 190907Z AUTO 19008KT 8SM SCT006 BKN060 15/14 A3015 RMK AO2 T01500144
KMEI 190858Z AUTO 20006KT 9SM SCT060 15/14 A3015 RMK AO2 SLP207 T01500139 52002
KMEI 190758Z AUTO 20004KT 10SM FEW008 12/11 A3015 RMK AO2 SLP206 T01220111
KMEI 190658Z AUTO 00000KT 10SM CLR 11/11 A3015 RMK AO2 SLP207 T01110106
KMEI 190613Z AUTO 00000KT 9SM FEW003 12/11 A3014 RMK AO2 T01170106
KMEI 190558Z AUTO 00000KT 8SM CLR 12/11 A3014 RMK AO2 SLP206 T01170106 10161 20117 401890100 58008
KMEI 190458Z AUTO 00000KT 10SM CLR 12/11 A3016 RMK AO2 SLP211 T01170111
KMEI 190358Z 00000KT 8SM CLR 13/12 A3016 RMK AO2 SLP211 T01280117
KMEI 190258Z 00000KT 7SM CLR 13/12 A3017 RMK AO2 SLP214 T01280122 58002
KMEI 190158Z 00000KT 6SM BR CLR 14/13 A3017 RMK AO2 SLP215 T01390128
KMEI 190058Z 00000KT 10SM CLR 15/14 A3017 RMK AO2 SLP217 T01500139
KMEI 182358Z 32003KT 10SM FEW095 16/14 A3017 RMK AO2 SLP217 T01610144 10189 20128 53002